sensor_id;sensor_type;location;lat;lon;timestamp;pressure;altitude;pressure_sealevel;temperature;humidity
37860;BME280;23698;52.014;5.190;2023-03-13T00:00:25;100842.56;;;8.76;100.00
37860;BME280;23698;52.014;5.190;2023-03-13T00:03:11;100839.84;;;8.76;100.00
37860;BME280;23698;52.014;5.190;2023-03-13T00:05:58;100827.47;;;8.81;100.00
37860;BME280;23698;52.014;5.190;2023-03-13T00:08:44;100824.13;;;8.79;100.00
37860;BME280;23698;52.014;5.190;2023-03-13T00:11:31;100811.06;;;8.83;100.00
37860;BME280;23698;52.014;5.190;2023-03-13T00:14:18;100812.84;;;8.91;100.00
37860;BME280;23698;52.014;5.190;2023-03-13T00:17:05;100816.47;;;8.83;100.00
37860;BME280;23698;52.014;5.190;2023-03-13T00:19:52;100818.53;;;8.81;100.00
37860;BME280;23698;52.014;5.190;2023-03-13T00:22:39;100823.34;;;8.71;100.00
37860;BME280;23698;52.014;5.190;2023-03-13T00:25:26;100817.97;;;8.62;100.00
37860;BME280;23698;52.014;5.190;2023-03-13T00:28:13;100840.69;;;8.53;100.00
37860;BME280;23698;52.014;5.190;2023-03-13T00:31:00;100844.81;;;8.64;100.00
37860;BME280;23698;52.014;5.190;2023-03-13T00:33:49;100866.56;;;8.71;100.00
37860;BME280;23698;52.014;5.190;2023-03-13T00:36:36;100876.03;;;8.66;100.00
37860;BME280;23698;52.014;5.190;2023-03-13T00:39:23;100878.56;;;8.68;100.00
37860;BME280;23698;52.014;5.190;2023-03-13T00:42:09;100874.50;;;8.72;100.00
37860;BME280;23698;52.014;5.190;2023-03-13T00:44:55;100883.28;;;8.74;100.00
37860;BME280;23698;52.014;5.190;2023-03-13T00:47:42;100883.75;;;8.78;100.00
37860;BME280;23698;52.014;5.190;2023-03-13T00:50:29;100875.94;;;8.83;100.00
37860;BME280;23698;52.014;5.190;2023-03-13T00:53:16;100886.59;;;8.84;100.00
37860;BME280;23698;52.014;5.190;2023-03-13T00:56:04;100889.41;;;8.91;100.00
37860;BME280;23698;52.014;5.190;2023-03-13T00:58:50;100885.03;;;8.90;100.00
37860;BME280;23698;52.014;5.190;2023-03-13T01:01:37;100888.38;;;8.92;100.00
37860;BME280;23698;52.014;5.190;2023-03-13T01:04:24;100890.06;;;8.93;100.00
37860;BME280;23698;52.014;5.190;2023-03-13T01:07:12;100890.06;;;8.93;100.00
37860;BME280;23698;52.014;5.190;2023-03-13T01:09:58;100879.09;;;8.95;100.00
37860;BME280;23698;52.014;5.190;2023-03-13T01:12:44;100881.22;;;8.99;100.00
37860;BME280;23698;52.014;5.190;2023-03-13T01:15:33;100887.53;;;9.15;100.00
37860;BME280;23698;52.014;5.190;2023-03-13T01:18:20;100882.91;;;9.23;100.00
37860;BME280;23698;52.014;5.190;2023-03-13T01:21:07;100875.63;;;9.24;100.00
37860;BME280;23698;52.014;5.190;2023-03-13T01:23:55;100864.25;;;9.29;100.00
37860;BME280;23698;52.014;5.190;2023-03-13T01:26:41;100853.09;;;9.32;100.00
37860;BME280;23698;52.014;5.190;2023-03-13T01:29:28;100848.69;;;9.31;100.00
37860;BME280;23698;52.014;5.190;2023-03-13T01:32:14;100871.56;;;9.43;100.00
37860;BME280;23698;52.014;5.190;2023-03-13T01:35:00;100853.84;;;9.40;100.00
37860;BME280;23698;52.014;5.190;2023-03-13T01:37:47;100837.91;;;9.45;100.00
37860;BME280;23698;52.014;5.190;2023-03-13T01:40:40;100822.50;;;9.46;100.00
37860;BME280;23698;52.014;5.190;2023-03-13T01:43:27;100825.50;;;9.51;100.00
37860;BME280;23698;52.014;5.190;2023-03-13T01:46:18;100827.25;;;9.59;100.00
37860;BME280;23698;52.014;5.190;2023-03-13T01:49:20;100805.13;;;9.55;100.00
37860;BME280;23698;52.014;5.190;2023-03-13T01:52:26;100806.19;;;9.54;100.00
37860;BME280;23698;52.014;5.190;2023-03-13T01:55:22;100807.94;;;9.62;100.00
37860;BME280;23698;52.014;5.190;2023-03-13T01:58:11;100807.88;;;9.70;100.00
37860;BME280;23698;52.014;5.190;2023-03-13T02:00:59;100805.03;;;9.78;100.00
37860;BME280;23698;52.014;5.190;2023-03-13T02:03:47;100792.91;;;9.74;100.00
37860;BME280;23698;52.014;5.190;2023-03-13T02:06:37;100787.59;;;9.81;100.00
37860;BME280;23698;52.014;5.190;2023-03-13T02:09:27;100770.25;;;9.75;100.00
37860;BME280;23698;52.014;5.190;2023-03-13T02:12:21;100772.00;;;9.83;100.00
37860;BME280;23698;52.014;5.190;2023-03-13T02:15:13;100768.09;;;9.86;100.00
37860;BME280;23698;52.014;5.190;2023-03-13T02:18:00;100760.88;;;9.93;100.00
37860;BME280;23698;52.014;5.190;2023-03-13T02:20:49;100752.34;;;9.96;100.00
37860;BME280;23698;52.014;5.190;2023-03-13T02:23:38;100762.91;;;10.06;100.00
37860;BME280;23698;52.014;5.190;2023-03-13T02:26:28;100752.44;;;10.02;100.00
37860;BME280;23698;52.014;5.190;2023-03-13T02:29:15;100757.66;;;10.04;100.00
37860;BME280;23698;52.014;5.190;2023-03-13T02:32:03;100754.03;;;10.12;100.00
37860;BME280;23698;52.014;5.190;2023-03-13T02:34:53;100754.78;;;10.06;100.00
37860;BME280;23698;52.014;5.190;2023-03-13T02:37:41;100750.47;;;10.11;100.00
37860;BME280;23698;52.014;5.190;2023-03-13T02:40:35;100749.78;;;10.24;100.00
37860;BME280;23698;52.014;5.190;2023-03-13T02:43:28;100757.31;;;10.29;100.00
37860;BME280;23698;52.014;5.190;2023-03-13T02:46:18;100755.78;;;10.34;100.00
37860;BME280;23698;52.014;5.190;2023-03-13T02:49:19;100755.25;;;10.46;100.00
37860;BME280;23698;52.014;5.190;2023-03-13T02:52:11;100755.94;;;10.54;100.00
37860;BME280;23698;52.014;5.190;2023-03-13T02:55:02;100749.75;;;10.61;100.00
37860;BME280;23698;52.014;5.190;2023-03-13T02:57:50;100762.72;;;10.65;100.00
37860;BME280;23698;52.014;5.190;2023-03-13T03:00:37;100757.19;;;10.73;100.00
37860;BME280;23698;52.014;5.190;2023-03-13T03:03:23;100754.47;;;10.73;100.00
37860;BME280;23698;52.014;5.190;2023-03-13T03:06:10;100762.66;;;10.80;100.00
37860;BME280;23698;52.014;5.190;2023-03-13T03:08:56;100757.97;;;10.95;100.00
37860;BME280;23698;52.014;5.190;2023-03-13T03:11:44;100737.31;;;10.94;100.00
37860;BME280;23698;52.014;5.190;2023-03-13T03:14:33;100740.47;;;10.98;100.00
37860;BME280;23698;52.014;5.190;2023-03-13T03:17:21;100747.16;;;11.02;100.00
37860;BME280;23698;52.014;5.190;2023-03-13T03:20:09;100741.75;;;11.02;100.00
37860;BME280;23698;52.014;5.190;2023-03-13T03:23:00;100738.47;;;11.07;100.00
37860;BME280;23698;52.014;5.190;2023-03-13T03:25:46;100732.22;;;11.13;100.00
37860;BME280;23698;52.014;5.190;2023-03-13T03:28:32;100724.75;;;11.15;100.00
37860;BME280;23698;52.014;5.190;2023-03-13T03:31:23;100726.22;;;11.18;100.00
37860;BME280;23698;52.014;5.190;2023-03-13T03:34:11;100728.16;;;11.24;100.00
37860;BME280;23698;52.014;5.190;2023-03-13T03:36:57;100728.59;;;11.27;100.00
37860;BME280;23698;52.014;5.190;2023-03-13T03:39:46;100712.94;;;11.29;100.00
37860;BME280;23698;52.014;5.190;2023-03-13T03:42:32;100710.41;;;11.28;100.00
37860;BME280;23698;52.014;5.190;2023-03-13T03:45:19;100703.09;;;11.28;100.00
37860;BME280;23698;52.014;5.190;2023-03-13T03:48:06;100713.81;;;11.37;100.00
37860;BME280;23698;52.014;5.190;2023-03-13T03:50:54;100708.19;;;11.38;100.00
37860;BME280;23698;52.014;5.190;2023-03-13T03:53:40;100704.66;;;11.44;100.00
37860;BME280;23698;52.014;5.190;2023-03-13T03:56:27;100698.19;;;11.45;100.00
37860;BME280;23698;52.014;5.190;2023-03-13T03:59:14;100686.13;;;11.55;100.00
37860;BME280;23698;52.014;5.190;2023-03-13T04:02:05;100689.25;;;11.58;100.00
37860;BME280;23698;52.014;5.190;2023-03-13T04:04:52;100665.91;;;11.64;100.00
37860;BME280;23698;52.014;5.190;2023-03-13T04:07:45;100658.59;;;11.64;100.00
37860;BME280;23698;52.014;5.190;2023-03-13T04:10:31;100671.53;;;11.62;100.00
37860;BME280;23698;52.014;5.190;2023-03-13T04:13:17;100666.13;;;11.62;100.00
37860;BME280;23698;52.014;5.190;2023-03-13T04:16:06;100668.41;;;11.65;100.00
37860;BME280;23698;52.014;5.190;2023-03-13T04:18:53;100657.13;;;11.68;100.00
37860;BME280;23698;52.014;5.190;2023-03-13T04:21:42;100651.50;;;11.70;100.00
37860;BME280;23698;52.014;5.190;2023-03-13T04:24:33;100630.00;;;11.68;100.00
37860;BME280;23698;52.014;5.190;2023-03-13T04:27:20;100633.56;;;11.76;100.00
37860;BME280;23698;52.014;5.190;2023-03-13T04:30:09;100623.75;;;11.75;100.00
37860;BME280;23698;52.014;5.190;2023-03-13T04:33:28;100622.91;;;11.81;100.00
37860;BME280;23698;52.014;5.190;2023-03-13T04:36:33;100607.69;;;11.86;100.00
37860;BME280;23698;52.014;5.190;2023-03-13T04:39:49;100603.09;;;11.87;100.00
37860;BME280;23698;52.014;5.190;2023-03-13T04:42:53;100584.34;;;11.92;100.00
37860;BME280;23698;52.014;5.190;2023-03-13T04:45:58;100587.88;;;11.93;100.00
37860;BME280;23698;52.014;5.190;2023-03-13T04:49:21;100574.13;;;12.07;100.00
37860;BME280;23698;52.014;5.190;2023-03-13T04:52:30;100560.31;;;12.02;100.00
37860;BME280;23698;52.014;5.190;2023-03-13T04:55:50;100549.66;;;12.01;100.00
37860;BME280;23698;52.014;5.190;2023-03-13T04:59:02;100546.94;;;12.07;100.00
37860;BME280;23698;52.014;5.190;2023-03-13T05:01:56;100531.47;;;12.08;100.00
37860;BME280;23698;52.014;5.190;2023-03-13T05:05:01;100536.47;;;12.04;100.00
37860;BME280;23698;52.014;5.190;2023-03-13T05:08:06;100511.38;;;12.09;100.00
37860;BME280;23698;52.014;5.190;2023-03-13T05:11:10;100514.53;;;12.13;100.00
37860;BME280;23698;52.014;5.190;2023-03-13T05:14:26;100503.88;;;12.11;100.00
37860;BME280;23698;52.014;5.190;2023-03-13T05:17:31;100482.31;;;12.30;100.00
37860;BME280;23698;52.014;5.190;2023-03-13T05:20:39;100465.19;;;12.22;100.00
37860;BME280;23698;52.014;5.190;2023-03-13T05:23:25;100450.97;;;12.20;100.00
37860;BME280;23698;52.014;5.190;2023-03-13T05:26:21;100455.13;;;12.36;100.00
37860;BME280;23698;52.014;5.190;2023-03-13T05:29:40;100429.63;;;12.37;100.00
37860;BME280;23698;52.014;5.190;2023-03-13T05:32:34;100418.56;;;12.32;100.00
37860;BME280;23698;52.014;5.190;2023-03-13T05:35:56;100383.16;;;12.39;100.00
37860;BME280;23698;52.014;5.190;2023-03-13T05:38:58;100362.91;;;12.35;100.00
37860;BME280;23698;52.014;5.190;2023-03-13T05:42:10;100336.56;;;12.35;100.00
37860;BME280;23698;52.014;5.190;2023-03-13T05:45:10;100322.53;;;12.38;100.00
37860;BME280;23698;52.014;5.190;2023-03-13T05:48:21;100281.78;;;12.38;100.00
37860;BME280;23698;52.014;5.190;2023-03-13T05:51:34;100234.34;;;12.34;100.00
37860;BME280;23698;52.014;5.190;2023-03-13T05:54:42;100205.06;;;12.36;100.00
37860;BME280;23698;52.014;5.190;2023-03-13T05:57:31;100188.78;;;12.30;100.00
37860;BME280;23698;52.014;5.190;2023-03-13T06:00:35;100163.50;;;12.29;100.00
37860;BME280;23698;52.014;5.190;2023-03-13T06:03:50;100143.84;;;12.34;100.00
37860;BME280;23698;52.014;5.190;2023-03-13T06:06:37;100123.94;;;12.33;100.00
37860;BME280;23698;52.014;5.190;2023-03-13T06:09:24;100109.38;;;12.27;100.00
37860;BME280;23698;52.014;5.190;2023-03-13T06:12:12;100099.72;;;12.32;100.00
37860;BME280;23698;52.014;5.190;2023-03-13T06:15:00;100101.78;;;12.36;100.00
37860;BME280;23698;52.014;5.190;2023-03-13T06:18:11;100068.34;;;12.36;100.00
37860;BME280;23698;52.014;5.190;2023-03-13T06:21:00;100074.97;;;12.40;100.00
37860;BME280;23698;52.014;5.190;2023-03-13T06:23:46;100053.22;;;12.40;100.00
37860;BME280;23698;52.014;5.190;2023-03-13T06:26:33;100060.94;;;12.43;100.00
37860;BME280;23698;52.014;5.190;2023-03-13T06:29:20;100043.06;;;12.54;100.00
37860;BME280;23698;52.014;5.190;2023-03-13T06:32:09;100027.97;;;12.58;100.00
37860;BME280;23698;52.014;5.190;2023-03-13T06:34:55;100023.53;;;12.63;100.00
37860;BME280;23698;52.014;5.190;2023-03-13T06:37:42;99994.00;;;12.67;100.00
37860;BME280;23698;52.014;5.190;2023-03-13T06:40:28;99970.56;;;12.66;100.00
37860;BME280;23698;52.014;5.190;2023-03-13T06:43:14;99960.53;;;12.66;100.00
37860;BME280;23698;52.014;5.190;2023-03-13T06:46:02;99950.50;;;12.67;100.00
37860;BME280;23698;52.014;5.190;2023-03-13T06:48:51;99950.72;;;12.65;100.00
37860;BME280;23698;52.014;5.190;2023-03-13T06:51:37;99936.19;;;12.72;100.00
37860;BME280;23698;52.014;5.190;2023-03-13T06:54:24;99928.53;;;12.69;100.00
37860;BME280;23698;52.014;5.190;2023-03-13T06:57:10;99935.22;;;12.66;100.00
37860;BME280;23698;52.014;5.190;2023-03-13T06:59:57;99950.78;;;12.59;100.00
37860;BME280;23698;52.014;5.190;2023-03-13T07:02:43;99941.81;;;12.58;100.00
37860;BME280;23698;52.014;5.190;2023-03-13T07:05:31;99962.41;;;12.47;100.00
37860;BME280;23698;52.014;5.190;2023-03-13T07:08:18;99981.06;;;12.44;100.00
37860;BME280;23698;52.014;5.190;2023-03-13T07:11:06;99994.34;;;12.34;100.00
37860;BME280;23698;52.014;5.190;2023-03-13T07:13:54;100027.06;;;12.20;100.00
37860;BME280;23698;52.014;5.190;2023-03-13T07:16:59;100042.78;;;12.18;100.00
37860;BME280;23698;52.014;5.190;2023-03-13T07:19:45;100083.41;;;12.06;100.00
37860;BME280;23698;52.014;5.190;2023-03-13T07:22:33;100110.59;;;12.00;100.00
37860;BME280;23698;52.014;5.190;2023-03-13T07:25:19;100153.69;;;11.96;100.00
37860;BME280;23698;52.014;5.190;2023-03-13T07:28:06;100210.94;;;11.95;100.00
37860;BME280;23698;52.014;5.190;2023-03-13T07:30:52;100228.91;;;11.96;100.00
37860;BME280;23698;52.014;5.190;2023-03-13T07:33:39;100255.47;;;11.94;100.00
37860;BME280;23698;52.014;5.190;2023-03-13T07:36:26;100270.66;;;11.88;100.00
37860;BME280;23698;52.014;5.190;2023-03-13T07:39:15;100280.09;;;11.85;100.00
37860;BME280;23698;52.014;5.190;2023-03-13T07:42:01;100292.19;;;11.89;100.00
37860;BME280;23698;52.014;5.190;2023-03-13T07:44:48;100306.84;;;11.88;100.00
37860;BME280;23698;52.014;5.190;2023-03-13T07:47:34;100327.50;;;11.89;100.00
37860;BME280;23698;52.014;5.190;2023-03-13T07:50:21;100334.81;;;11.89;100.00
37860;BME280;23698;52.014;5.190;2023-03-13T07:53:07;100337.34;;;11.97;100.00
37860;BME280;23698;52.014;5.190;2023-03-13T07:55:57;100353.59;;;12.11;100.00
37860;BME280;23698;52.014;5.190;2023-03-13T07:58:44;100345.25;;;12.05;100.00
37860;BME280;23698;52.014;5.190;2023-03-13T08:01:30;100348.00;;;11.99;100.00
37860;BME280;23698;52.014;5.190;2023-03-13T08:04:16;100347.16;;;11.92;100.00
37860;BME280;23698;52.014;5.190;2023-03-13T08:07:07;100356.78;;;11.94;100.00
37860;BME280;23698;52.014;5.190;2023-03-13T08:09:53;100363.91;;;11.95;100.00
37860;BME280;23698;52.014;5.190;2023-03-13T08:12:41;100359.50;;;11.94;100.00
37860;BME280;23698;52.014;5.190;2023-03-13T08:15:27;100373.06;;;11.87;100.00
37860;BME280;23698;52.014;5.190;2023-03-13T08:18:14;100367.66;;;11.94;100.00
37860;BME280;23698;52.014;5.190;2023-03-13T08:21:02;100383.31;;;11.92;100.00
37860;BME280;23698;52.014;5.190;2023-03-13T08:23:52;100384.16;;;11.93;100.00
37860;BME280;23698;52.014;5.190;2023-03-13T08:26:41;100389.56;;;11.86;100.00
37860;BME280;23698;52.014;5.190;2023-03-13T08:29:29;100394.19;;;11.92;100.00
37860;BME280;23698;52.014;5.190;2023-03-13T08:32:15;100404.81;;;12.00;100.00
37860;BME280;23698;52.014;5.190;2023-03-13T08:35:02;100389.56;;;12.06;100.00
37860;BME280;23698;52.014;5.190;2023-03-13T08:37:50;100394.56;;;12.09;100.00
37860;BME280;23698;52.014;5.190;2023-03-13T08:40:37;100385.16;;;12.18;100.00
37860;BME280;23698;52.014;5.190;2023-03-13T08:43:23;100362.13;;;12.27;100.00
37860;BME280;23698;52.014;5.190;2023-03-13T08:46:11;100361.06;;;12.28;100.00
37860;BME280;23698;52.014;5.190;2023-03-13T08:48:59;100340.97;;;12.36;100.00
37860;BME280;23698;52.014;5.190;2023-03-13T08:51:45;100339.81;;;12.57;100.00
37860;BME280;23698;52.014;5.190;2023-03-13T08:54:31;100321.81;;;12.56;100.00
37860;BME280;23698;52.014;5.190;2023-03-13T08:57:18;100294.03;;;12.54;100.00
37860;BME280;23698;52.014;5.190;2023-03-13T09:00:05;100268.09;;;12.58;100.00
37860;BME280;23698;52.014;5.190;2023-03-13T09:02:56;100260.50;;;12.67;100.00
37860;BME280;23698;52.014;5.190;2023-03-13T09:05:43;100245.22;;;12.66;100.00
37860;BME280;23698;52.014;5.190;2023-03-13T09:08:41;100217.97;;;12.73;100.00
37860;BME280;23698;52.014;5.190;2023-03-13T09:11:27;100184.16;;;13.12;100.00
37860;BME280;23698;52.014;5.190;2023-03-13T09:14:13;100135.13;;;13.37;100.00
37860;BME280;23698;52.014;5.190;2023-03-13T09:17:00;100081.47;;;13.56;100.00
37860;BME280;23698;52.014;5.190;2023-03-13T09:19:49;100020.22;;;13.77;100.00
37860;BME280;23698;52.014;5.190;2023-03-13T09:22:45;99941.22;;;13.89;100.00
37860;BME280;23698;52.014;5.190;2023-03-13T09:25:31;99874.41;;;13.98;100.00
37860;BME280;23698;52.014;5.190;2023-03-13T09:28:17;99823.34;;;14.06;100.00
37860;BME280;23698;52.014;5.190;2023-03-13T09:31:08;99750.09;;;14.09;100.00
37860;BME280;23698;52.014;5.190;2023-03-13T09:33:55;99702.38;;;14.07;100.00
37860;BME280;23698;52.014;5.190;2023-03-13T09:36:43;99650.78;;;13.88;100.00
37860;BME280;23698;52.014;5.190;2023-03-13T09:39:29;99639.63;;;14.19;100.00
37860;BME280;23698;52.014;5.190;2023-03-13T09:42:17;99613.53;;;14.40;100.00
37860;BME280;23698;52.014;5.190;2023-03-13T09:45:06;99567.56;;;14.60;100.00
37860;BME280;23698;52.014;5.190;2023-03-13T09:47:56;99514.91;;;14.43;100.00
37860;BME280;23698;52.014;5.190;2023-03-13T09:50:46;99487.16;;;14.29;100.00
37860;BME280;23698;52.014;5.190;2023-03-13T09:53:45;99464.94;;;14.37;100.00
37860;BME280;23698;52.014;5.190;2023-03-13T09:56:39;99429.06;;;14.45;100.00
37860;BME280;23698;52.014;5.190;2023-03-13T09:59:33;99415.28;;;14.74;100.00
37860;BME280;23698;52.014;5.190;2023-03-13T10:02:27;99383.75;;;14.83;100.00
37860;BME280;23698;52.014;5.190;2023-03-13T10:05:18;99354.06;;;15.14;100.00
37860;BME280;23698;52.014;5.190;2023-03-13T10:08:13;99330.75;;;15.01;100.00
37860;BME280;23698;52.014;5.190;2023-03-13T10:11:03;99307.22;;;15.27;100.00
37860;BME280;23698;52.014;5.190;2023-03-13T10:13:57;99273.81;;;15.15;100.00
37860;BME280;23698;52.014;5.190;2023-03-13T10:16:48;99241.97;;;15.68;100.00
37860;BME280;23698;52.014;5.190;2023-03-13T10:19:39;99223.88;;;15.57;100.00
37860;BME280;23698;52.014;5.190;2023-03-13T10:22:27;99213.53;;;15.17;100.00
37860;BME280;23698;52.014;5.190;2023-03-13T10:25:23;99216.50;;;15.15;100.00
37860;BME280;23698;52.014;5.190;2023-03-13T10:28:15;99197.91;;;15.12;100.00
37860;BME280;23698;52.014;5.190;2023-03-13T10:31:05;99187.25;;;15.53;100.00
37860;BME280;23698;52.014;5.190;2023-03-13T10:34:04;99180.00;;;15.26;100.00
37860;BME280;23698;52.014;5.190;2023-03-13T10:36:55;99167.59;;;15.08;100.00
37860;BME280;23698;52.014;5.190;2023-03-13T10:39:42;99176.72;;;15.24;100.00
37860;BME280;23698;52.014;5.190;2023-03-13T10:42:31;99176.38;;;15.16;100.00
37860;BME280;23698;52.014;5.190;2023-03-13T10:45:20;99184.47;;;15.48;100.00
37860;BME280;23698;52.014;5.190;2023-03-13T10:48:12;99154.94;;;15.35;100.00
37860;BME280;23698;52.014;5.190;2023-03-13T10:50:58;99122.25;;;15.50;100.00
37860;BME280;23698;52.014;5.190;2023-03-13T10:53:47;99101.56;;;15.70;100.00
37860;BME280;23698;52.014;5.190;2023-03-13T10:56:35;99078.56;;;15.50;100.00
37860;BME280;23698;52.014;5.190;2023-03-13T10:59:23;99082.81;;;15.94;100.00
37860;BME280;23698;52.014;5.190;2023-03-13T11:02:24;99052.22;;;16.02;100.00
37860;BME280;23698;52.014;5.190;2023-03-13T11:05:30;99048.91;;;15.90;100.00
37860;BME280;23698;52.014;5.190;2023-03-13T11:08:20;99011.47;;;15.95;100.00
37860;BME280;23698;52.014;5.190;2023-03-13T11:11:16;99015.88;;;16.22;100.00
37860;BME280;23698;52.014;5.190;2023-03-13T11:14:08;99023.50;;;15.84;100.00
37860;BME280;23698;52.014;5.190;2023-03-13T11:16:57;99013.69;;;16.34;100.00
37860;BME280;23698;52.014;5.190;2023-03-13T11:19:54;98996.97;;;16.56;100.00
37860;BME280;23698;52.014;5.190;2023-03-13T11:22:52;99010.69;;;16.26;100.00
37860;BME280;23698;52.014;5.190;2023-03-13T11:25:47;98977.28;;;16.44;100.00
37860;BME280;23698;52.014;5.190;2023-03-13T11:28:45;98996.69;;;16.48;100.00
37860;BME280;23698;52.014;5.190;2023-03-13T11:31:37;98984.97;;;16.37;100.00
37860;BME280;23698;52.014;5.190;2023-03-13T11:34:31;99012.00;;;16.69;100.00
37860;BME280;23698;52.014;5.190;2023-03-13T11:37:25;99007.59;;;16.89;100.00
37860;BME280;23698;52.014;5.190;2023-03-13T11:40:19;99008.41;;;16.84;100.00
37860;BME280;23698;52.014;5.190;2023-03-13T11:43:16;99001.47;;;17.17;100.00
37860;BME280;23698;52.014;5.190;2023-03-13T11:46:21;99011.94;;;17.00;100.00
37860;BME280;23698;52.014;5.190;2023-03-13T11:49:38;99008.47;;;16.43;100.00
37860;BME280;23698;52.014;5.190;2023-03-13T11:52:39;99018.31;;;16.39;100.00
37860;BME280;23698;52.014;5.190;2023-03-13T11:55:45;99025.72;;;16.28;100.00
37860;BME280;23698;52.014;5.190;2023-03-13T11:58:59;99034.19;;;16.37;100.00
37860;BME280;23698;52.014;5.190;2023-03-13T12:01:50;99008.50;;;16.38;100.00
37860;BME280;23698;52.014;5.190;2023-03-13T12:04:41;99023.50;;;16.56;100.00
37860;BME280;23698;52.014;5.190;2023-03-13T12:07:31;99030.34;;;16.48;100.00
37860;BME280;23698;52.014;5.190;2023-03-13T12:10:25;99028.13;;;16.71;100.00
37860;BME280;23698;52.014;5.190;2023-03-13T12:13:16;99031.75;;;16.15;100.00
37860;BME280;23698;52.014;5.190;2023-03-13T12:16:08;98996.63;;;16.94;100.00
37860;BME280;23698;52.014;5.190;2023-03-13T12:18:56;98995.22;;;17.02;100.00
37860;BME280;23698;52.014;5.190;2023-03-13T12:21:46;98976.16;;;16.76;100.00
37860;BME280;23698;52.014;5.190;2023-03-13T12:24:37;98966.31;;;16.70;100.00
37860;BME280;23698;52.014;5.190;2023-03-13T12:27:30;98989.34;;;16.33;100.00
37860;BME280;23698;52.014;5.190;2023-03-13T12:30:23;98981.94;;;16.38;100.00
37860;BME280;23698;52.014;5.190;2023-03-13T12:33:16;98960.41;;;16.06;100.00
37860;BME280;23698;52.014;5.190;2023-03-13T12:36:12;98966.13;;;16.25;100.00
37860;BME280;23698;52.014;5.190;2023-03-13T12:39:09;98957.59;;;16.42;100.00
37860;BME280;23698;52.014;5.190;2023-03-13T12:42:10;98943.94;;;16.42;100.00
37860;BME280;23698;52.014;5.190;2023-03-13T12:45:04;98952.66;;;16.59;100.00
37860;BME280;23698;52.014;5.190;2023-03-13T12:48:16;98943.63;;;16.59;100.00
37860;BME280;23698;52.014;5.190;2023-03-13T12:51:16;98938.72;;;16.56;100.00
37860;BME280;23698;52.014;5.190;2023-03-13T12:54:25;98939.00;;;16.49;100.00
37860;BME280;23698;52.014;5.190;2023-03-13T12:57:28;98938.44;;;16.52;100.00
37860;BME280;23698;52.014;5.190;2023-03-13T13:00:27;98925.19;;;16.95;100.00
37860;BME280;23698;52.014;5.190;2023-03-13T13:03:21;98932.63;;;16.85;100.00
37860;BME280;23698;52.014;5.190;2023-03-13T13:06:12;98921.13;;;17.38;100.00
37860;BME280;23698;52.014;5.190;2023-03-13T13:09:12;98920.16;;;17.58;100.00
37860;BME280;23698;52.014;5.190;2023-03-13T13:12:01;98943.00;;;17.82;100.00
37860;BME280;23698;52.014;5.190;2023-03-13T13:15:01;98952.53;;;17.06;100.00
37860;BME280;23698;52.014;5.190;2023-03-13T13:18:12;98951.63;;;16.24;100.00
37860;BME280;23698;52.014;5.190;2023-03-13T13:21:26;98943.38;;;16.55;100.00
37860;BME280;23698;52.014;5.190;2023-03-13T13:24:40;98926.22;;;16.09;100.00
37860;BME280;23698;52.014;5.190;2023-03-13T13:27:44;98939.34;;;16.01;100.00
37860;BME280;23698;52.014;5.190;2023-03-13T13:30:32;98932.53;;;15.78;100.00
37860;BME280;23698;52.014;5.190;2023-03-13T13:33:39;98963.66;;;16.18;100.00
37860;BME280;23698;52.014;5.190;2023-03-13T13:36:31;98985.28;;;16.15;100.00
37860;BME280;23698;52.014;5.190;2023-03-13T13:39:33;99014.78;;;16.08;100.00
37860;BME280;23698;52.014;5.190;2023-03-13T13:42:46;99030.31;;;15.86;100.00
37860;BME280;23698;52.014;5.190;2023-03-13T13:45:35;99032.25;;;15.96;100.00
37860;BME280;23698;52.014;5.190;2023-03-13T13:48:26;99021.03;;;15.77;100.00
37860;BME280;23698;52.014;5.190;2023-03-13T13:51:21;99033.00;;;15.66;100.00
37860;BME280;23698;52.014;5.190;2023-03-13T13:54:31;99019.97;;;15.94;100.00
37860;BME280;23698;52.014;5.190;2023-03-13T13:57:19;99020.22;;;15.82;100.00
37860;BME280;23698;52.014;5.190;2023-03-13T14:00:17;99033.88;;;15.77;100.00
37860;BME280;23698;52.014;5.190;2023-03-13T14:03:15;99033.88;;;15.77;100.00
37860;BME280;23698;52.014;5.190;2023-03-13T14:06:13;99036.66;;;15.97;100.00
37860;BME280;23698;52.014;5.190;2023-03-13T14:09:13;99043.72;;;15.98;100.00
37860;BME280;23698;52.014;5.190;2023-03-13T14:12:00;99050.56;;;15.96;100.00
37860;BME280;23698;52.014;5.190;2023-03-13T14:14:47;99047.56;;;15.97;100.00
37860;BME280;23698;52.014;5.190;2023-03-13T14:17:37;99047.03;;;15.90;100.00
37860;BME280;23698;52.014;5.190;2023-03-13T14:20:27;99033.34;;;16.00;100.00
37860;BME280;23698;52.014;5.190;2023-03-13T14:23:14;99033.06;;;15.92;100.00
37860;BME280;23698;52.014;5.190;2023-03-13T14:26:10;99029.25;;;15.93;100.00
37860;BME280;23698;52.014;5.190;2023-03-13T14:28:59;99052.47;;;15.85;100.00
37860;BME280;23698;52.014;5.190;2023-03-13T14:31:51;99040.16;;;15.88;100.00
37860;BME280;23698;52.014;5.190;2023-03-13T14:34:38;99040.47;;;15.96;100.00
37860;BME280;23698;52.014;5.190;2023-03-13T14:37:33;99031.19;;;16.08;100.00
37860;BME280;23698;52.014;5.190;2023-03-13T14:40:25;99024.88;;;16.07;100.00
37860;BME280;23698;52.014;5.190;2023-03-13T14:43:21;99056.03;;;15.85;100.00
37860;BME280;23698;52.014;5.190;2023-03-13T14:46:13;99039.38;;;16.33;100.00
37860;BME280;23698;52.014;5.190;2023-03-13T14:49:06;99055.25;;;16.47;100.00
37860;BME280;23698;52.014;5.190;2023-03-13T14:51:59;99066.72;;;16.64;100.00
37860;BME280;23698;52.014;5.190;2023-03-13T14:54:54;99051.16;;;16.18;100.00